Time;durP1;ratioP1;P1;durP2;ratioP2;P2;SDS_P1;SDS_P2;PMS_P1;PMS_P2;Temp;Humidity;BMP_temperature;BMP_pressure;BME280_temperature;BME280_humidity;BME280_pressure;Samples;Min_cycle;Max_cycle;Signal;HPM_P1;HPM_P2
2023/07/28 00:02:09;;;;;;;0.10;0.10;;;13.60;60.10;;;;;;5057492;28;20203;-57
2023/07/28 00:04:40;;;;;;;0.10;0.10;;;13.70;60.10;;;;;;5057043;28;20626;-51
2023/07/28 00:07:10;;;;;;;0.10;0.10;;;13.70;60.00;;;;;;5057293;28;20207;-57
2023/07/28 00:09:41;;;;;;;0.10;0.10;;;13.70;59.90;;;;;;5038177;28;20203;-52
2023/07/28 00:12:12;;;;;;;0.10;0.10;;;13.70;60.00;;;;;;5038075;28;20203;-51
2023/07/28 00:14:42;;;;;;;0.20;0.20;;;13.70;60.00;;;;;;5037746;28;20224;-54
2023/07/28 00:17:15;;;;;;;0.10;0.10;;;13.70;59.80;;;;;;5037632;28;20200;-55
2023/07/28 00:19:45;;;;;;;0.10;0.10;;;13.70;59.60;;;;;;5045931;28;20183;-53
2023/07/28 00:22:16;;;;;;;0.20;0.20;;;13.70;59.60;;;;;;5058050;28;20203;-54
2023/07/28 00:24:47;;;;;;;0.10;0.10;;;13.70;59.40;;;;;;5057861;28;20222;-56
2023/07/28 00:27:18;;;;;;;0.20;0.20;;;13.70;59.30;;;;;;5058058;28;20214;-52
2023/07/28 00:29:48;;;;;;;0.10;0.10;;;13.70;59.20;;;;;;5057717;28;20608;-54
2023/07/28 00:32:21;;;;;;;0.10;0.10;;;13.70;59.10;;;;;;5057628;28;20818;-52
2023/07/28 00:34:52;;;;;;;0.15;0.15;;;13.70;59.00;;;;;;5053992;28;20219;-60
2023/07/28 00:37:22;;;;;;;0.10;0.10;;;13.70;58.90;;;;;;5053691;28;20444;-62
2023/07/28 00:39:53;;;;;;;0.10;0.10;;;13.70;58.90;;;;;;5043380;28;20192;-56
2023/07/28 00:42:23;;;;;;;0.17;0.17;;;13.70;58.80;;;;;;5057143;28;20199;-52
2023/07/28 00:44:54;;;;;;;0.13;0.13;;;13.60;58.80;;;;;;5056391;28;20215;-57
2023/07/28 00:47:27;;;;;;;0.10;0.10;;;13.60;58.70;;;;;;5057484;28;20199;-56
2023/07/28 00:49:58;;;;;;;0.10;0.10;;;13.60;58.70;;;;;;5057631;28;20198;-59
2023/07/28 00:52:28;;;;;;;0.10;0.10;;;13.60;58.70;;;;;;5056966;28;20636;-58
2023/07/28 00:54:59;;;;;;;0.10;0.10;;;13.60;58.80;;;;;;5056794;28;20257;-60
2023/07/28 00:57:30;;;;;;;0.20;0.20;;;13.60;58.90;;;;;;5056313;28;20198;-55
2023/07/28 01:00:00;;;;;;;0.10;0.10;;;13.60;58.80;;;;;;5056720;28;20353;-55
2023/07/28 01:02:33;;;;;;;0.13;0.13;;;13.60;58.70;;;;;;5056859;28;21504;-54
2023/07/28 01:05:04;;;;;;;0.10;0.10;;;13.60;58.70;;;;;;5053974;28;20218;-52
2023/07/28 01:07:46;;;;;;;0.20;0.20;;;13.60;58.80;;;;;;5054242;28;20196;-55
2023/07/28 01:10:19;;;;;;;0.10;0.10;;;13.60;58.80;;;;;;5053486;28;20184;-49
2023/07/28 01:12:50;;;;;;;0.15;0.15;;;13.60;58.70;;;;;;5053744;28;20642;-53
2023/07/28 01:15:20;;;;;;;0.10;0.10;;;13.60;58.70;;;;;;5052960;28;20215;-52
2023/07/28 01:17:53;;;;;;;0.10;0.10;;;13.60;58.60;;;;;;5053259;28;20196;-47
2023/07/28 01:20:28;;;;;;;0.20;0.20;;;13.70;58.60;;;;;;5053526;28;20557;-48
2023/07/28 01:23:10;;;;;;;0.10;0.10;;;13.60;58.50;;;;;;5053357;28;20238;-59
2023/07/28 01:25:51;;;;;;;0.10;0.10;;;13.60;58.40;;;;;;5053491;28;20291;-51
2023/07/28 01:28:24;;;;;;;0.10;0.10;;;13.70;58.50;;;;;;5053574;28;20619;-54
2023/07/28 01:30:55;;;;;;;0.00;0.00;;;13.70;58.60;;;;;;5056573;28;20577;-55
2023/07/28 01:33:26;;;;;;;0.10;0.10;;;13.70;58.40;;;;;;5053060;28;20228;-56
2023/07/28 01:35:56;;;;;;;0.10;0.10;;;13.70;58.10;;;;;;5053033;28;20697;-55
2023/07/28 01:38:27;;;;;;;0.10;0.10;;;13.70;57.90;;;;;;5053591;28;20202;-55
2023/07/28 01:40:58;;;;;;;0.10;0.10;;;13.70;57.70;;;;;;5052372;28;20423;-52
2023/07/28 01:43:31;;;;;;;0.10;0.10;;;13.70;57.70;;;;;;5053306;28;20202;-59
2023/07/28 01:46:02;;;;;;;0.10;0.10;;;13.70;57.70;;;;;;5052397;28;20215;-54
2023/07/28 01:48:32;;;;;;;0.10;0.10;;;13.70;57.80;;;;;;5053016;28;20200;-56
2023/07/28 01:51:03;;;;;;;0.10;0.10;;;13.70;57.80;;;;;;5052745;28;20199;-57
2023/07/28 01:53:34;;;;;;;0.10;0.10;;;13.70;57.90;;;;;;5053359;28;20219;-56
2023/07/28 01:56:04;;;;;;;0.13;0.13;;;13.70;58.00;;;;;;5053067;28;20214;-58
2023/07/28 01:58:37;;;;;;;0.10;0.10;;;13.70;58.00;;;;;;5053531;28;20674;-56
2023/07/28 02:01:07;;;;;;;0.10;0.10;;;13.80;58.10;;;;;;5052918;28;20218;-57
2023/07/28 02:03:38;;;;;;;0.20;0.20;;;13.70;58.10;;;;;;5053231;28;20635;-57
2023/07/28 02:06:09;;;;;;;0.10;0.10;;;13.80;58.20;;;;;;5053291;28;20690;-50
2023/07/28 02:08:39;;;;;;;0.10;0.10;;;13.80;58.20;;;;;;5052624;28;20569;-53
2023/07/28 02:11:10;;;;;;;0.10;0.10;;;13.80;58.20;;;;;;5052814;28;20650;-55
2023/07/28 02:13:42;;;;;;;0.10;0.10;;;13.80;58.30;;;;;;5052673;28;20227;-55
2023/07/28 02:16:13;;;;;;;0.10;0.10;;;13.80;58.30;;;;;;5051081;28;20682;-63
2023/07/28 02:18:44;;;;;;;0.10;0.10;;;13.80;58.30;;;;;;5051372;28;20210;-48
2023/07/28 02:21:14;;;;;;;0.10;0.10;;;13.80;58.40;;;;;;5052034;28;20183;-51
2023/07/28 02:23:45;;;;;;;0.10;0.10;;;13.80;58.50;;;;;;5052032;28;20281;-49
2023/07/28 02:26:16;;;;;;;0.10;0.10;;;13.90;58.80;;;;;;5043378;28;20216;-46
2023/07/28 02:28:48;;;;;;;0.10;0.10;;;13.90;59.10;;;;;;5052643;28;20219;-49
2023/07/28 02:31:19;;;;;;;0.10;0.10;;;13.90;59.20;;;;;;5058408;28;20191;-48
2023/07/28 02:33:49;;;;;;;0.20;0.20;;;13.90;59.40;;;;;;5052517;28;20223;-49
2023/07/28 02:36:20;;;;;;;0.10;0.10;;;14.00;59.40;;;;;;5051735;28;20218;-52
2023/07/28 02:38:51;;;;;;;0.10;0.10;;;14.00;59.50;;;;;;5052422;28;20203;-52
2023/07/28 02:41:21;;;;;;;0.15;0.15;;;14.00;59.50;;;;;;5057685;28;20258;-44
2023/07/28 02:43:54;;;;;;;0.10;0.10;;;14.10;59.60;;;;;;5072540;28;20654;-50
2023/07/28 02:46:25;;;;;;;0.10;0.10;;;14.10;59.60;;;;;;5060086;28;20546;-49
2023/07/28 02:48:56;;;;;;;0.10;0.10;;;14.20;59.70;;;;;;5051472;28;20195;-51
2023/07/28 02:51:26;;;;;;;0.10;0.10;;;14.20;59.70;;;;;;5052025;28;20200;-50
2023/07/28 02:53:57;;;;;;;0.10;0.10;;;14.30;59.80;;;;;;5051074;28;20746;-58
2023/07/28 02:56:27;;;;;;;0.10;0.10;;;14.30;59.70;;;;;;5051216;28;20222;-46
2023/07/28 02:59:00;;;;;;;0.10;0.10;;;14.40;59.80;;;;;;5049179;28;20249;-53
2023/07/28 03:01:32;;;;;;;0.10;0.10;;;14.40;59.90;;;;;;5052112;28;20195;-54
2023/07/28 03:04:03;;;;;;;0.10;0.10;;;14.40;59.80;;;;;;5051163;28;20196;-53
2023/07/28 03:06:34;;;;;;;0.10;0.10;;;14.50;59.80;;;;;;5051728;28;20191;-54
2023/07/28 03:09:04;;;;;;;0.13;0.13;;;14.50;59.80;;;;;;5051748;28;20646;-54
2023/07/28 03:11:35;;;;;;;0.10;0.10;;;14.60;59.80;;;;;;5051792;28;20769;-50
2023/07/28 03:14:07;;;;;;;0.10;0.10;;;14.60;59.80;;;;;;5051910;28;20230;-49
2023/07/28 03:16:38;;;;;;;0.10;0.10;;;14.60;59.80;;;;;;5050531;28;20686;-48
2023/07/28 03:19:09;;;;;;;0.10;0.10;;;14.70;59.80;;;;;;5051165;28;20225;-46
2023/07/28 03:21:39;;;;;;;0.10;0.10;;;14.70;59.80;;;;;;5051222;28;20192;-55
2023/07/28 03:24:10;;;;;;;0.10;0.10;;;14.70;59.80;;;;;;5050787;28;20203;-48
2023/07/28 03:26:41;;;;;;;0.10;0.10;;;14.80;59.90;;;;;;5050990;28;20211;-47
2023/07/28 03:29:13;;;;;;;0.10;0.10;;;14.80;60.00;;;;;;5051456;28;20199;-47
2023/07/28 03:31:44;;;;;;;0.10;0.10;;;14.90;60.00;;;;;;5059736;28;20192;-54
2023/07/28 03:34:14;;;;;;;0.10;0.10;;;14.90;60.00;;;;;;5051504;28;20231;-51
2023/07/28 03:36:45;;;;;;;0.10;0.10;;;14.90;59.90;;;;;;5051175;28;20200;-50
2023/07/28 03:39:16;;;;;;;0.10;0.10;;;15.00;60.00;;;;;;5050389;28;20203;-56
2023/07/28 03:41:47;;;;;;;0.10;0.10;;;15.00;59.90;;;;;;5051582;28;20198;-51
2023/07/28 03:44:19;;;;;;;0.00;0.00;;;15.10;59.90;;;;;;5051057;28;20215;-51
2023/07/28 03:46:50;;;;;;;0.10;0.10;;;15.10;59.80;;;;;;5050492;28;20245;-53
2023/07/28 03:49:21;;;;;;;0.10;0.10;;;15.10;59.80;;;;;;5051133;28;20716;-52
2023/07/28 03:51:51;;;;;;;0.10;0.10;;;15.10;59.70;;;;;;5050865;28;20195;-50
2023/07/28 03:54:22;;;;;;;0.10;0.10;;;15.20;59.70;;;;;;5050118;28;20231;-44
2023/07/28 03:56:52;;;;;;;0.10;0.10;;;15.20;59.60;;;;;;5050909;28;20195;-46
2023/07/28 03:59:25;;;;;;;0.10;0.10;;;15.20;59.60;;;;;;5051118;28;20203;-46
2023/07/28 04:01:55;;;;;;;0.10;0.10;;;15.30;59.80;;;;;;5051556;28;20199;-50
2023/07/28 04:04:26;;;;;;;0.10;0.10;;;15.30;59.80;;;;;;5050789;28;20222;-54
2023/07/28 04:06:57;;;;;;;0.10;0.10;;;15.40;59.80;;;;;;5051870;28;20195;-50
2023/07/28 04:09:27;;;;;;;0.10;0.10;;;15.40;59.80;;;;;;5051443;28;20205;-56
2023/07/28 04:11:58;;;;;;;0.10;0.10;;;15.40;59.70;;;;;;5051270;28;20669;-52
2023/07/28 04:14:30;;;;;;;0.10;0.10;;;15.50;59.70;;;;;;5051263;28;20231;-54
2023/07/28 04:17:01;;;;;;;0.10;0.10;;;15.50;60.30;;;;;;5051172;28;20195;-52
2023/07/28 04:19:33;;;;;;;0.05;0.05;;;15.50;59.60;;;;;;5051132;28;20195;-48
2023/07/28 04:22:04;;;;;;;0.10;0.10;;;15.60;59.50;;;;;;5051444;28;20241;-54
2023/07/28 04:24:34;;;;;;;0.10;0.10;;;15.60;59.40;;;;;;5051553;28;20219;-48
2023/07/28 04:27:05;;;;;;;0.10;0.10;;;15.70;59.40;;;;;;5051041;28;20214;-55
2023/07/28 04:29:37;;;;;;;0.10;0.10;;;15.60;59.20;;;;;;5051430;28;20614;-54
2023/07/28 04:32:09;;;;;;;0.10;0.10;;;15.70;59.20;;;;;;5049554;28;20207;-51
2023/07/28 04:34:39;;;;;;;0.10;0.10;;;15.70;59.20;;;;;;5050945;28;20683;-54
2023/07/28 04:37:10;;;;;;;0.10;0.10;;;15.70;59.10;;;;;;5050493;28;20659;-53
2023/07/28 04:39:41;;;;;;;0.10;0.10;;;15.70;59.10;;;;;;5050738;28;20203;-49
2023/07/28 04:42:11;;;;;;;0.10;0.10;;;15.80;59.10;;;;;;5054420;28;20211;-53
2023/07/28 04:44:45;;;;;;;0.13;0.13;;;15.80;59.00;;;;;;5054974;28;20219;-47
2023/07/28 04:47:16;;;;;;;0.10;0.10;;;15.80;58.90;;;;;;5054179;28;20196;-49
2023/07/28 04:49:46;;;;;;;0.10;0.10;;;15.90;58.90;;;;;;5054426;28;20200;-57
2023/07/28 04:52:17;;;;;;;0.10;0.10;;;15.90;58.90;;;;;;5054082;28;20603;-48
2023/07/28 04:54:48;;;;;;;0.10;0.10;;;15.90;58.80;;;;;;5054031;28;20230;-50
2023/07/28 04:57:19;;;;;;;0.00;0.00;;;15.90;58.80;;;;;;5053508;28;20204;-46
2023/07/28 04:59:52;;;;;;;0.10;0.10;;;15.90;58.80;;;;;;5053358;28;20286;-51
2023/07/28 05:02:22;;;;;;;0.10;0.10;;;15.90;58.80;;;;;;5053901;28;20203;-53
2023/07/28 05:04:53;;;;;;;0.10;0.10;;;15.90;58.80;;;;;;5054184;28;20695;-49
2023/07/28 05:07:24;;;;;;;0.10;0.10;;;16.00;58.80;;;;;;5053663;28;20647;-46
2023/07/28 05:09:54;;;;;;;0.10;0.10;;;16.00;58.70;;;;;;5054938;28;20647;-49
2023/07/28 05:12:25;;;;;;;0.10;0.10;;;15.90;58.50;;;;;;5053435;28;20194;-51
2023/07/28 05:14:58;;;;;;;0.10;0.10;;;15.90;59.10;;;;;;5053504;28;20223;-54
2023/07/28 05:17:28;;;;;;;0.10;0.10;;;15.90;58.40;;;;;;5053273;28;20192;-47
2023/07/28 05:19:59;;;;;;;0.10;0.10;;;15.90;58.40;;;;;;5053279;28;20200;-54
2023/07/28 05:22:29;;;;;;;0.10;0.10;;;15.90;58.30;;;;;;5054165;28;20261;-48
2023/07/28 05:25:00;;;;;;;0.10;0.10;;;15.90;58.30;;;;;;5053195;28;20211;-48
2023/07/28 05:27:31;;;;;;;0.10;0.10;;;15.90;58.30;;;;;;5053785;28;20680;-46
2023/07/28 05:30:04;;;;;;;0.10;0.10;;;15.90;58.30;;;;;;5053108;28;20207;-46
2023/07/28 05:32:35;;;;;;;0.10;0.10;;;15.90;58.30;;;;;;5053233;28;20724;-51
2023/07/28 05:35:05;;;;;;;0.10;0.10;;;15.90;58.30;;;;;;5052873;28;20234;-50
2023/07/28 05:37:36;;;;;;;0.10;0.10;;;15.90;58.20;;;;;;5052530;28;20191;-44
2023/07/28 05:40:07;;;;;;;0.10;0.10;;;15.90;58.20;;;;;;5052877;28;20195;-45
2023/07/28 05:42:38;;;;;;;0.10;0.10;;;15.80;58.10;;;;;;5052969;28;20191;-54
2023/07/28 05:45:12;;;;;;;0.10;0.10;;;15.80;58.10;;;;;;5053177;28;20223;-50
2023/07/28 05:47:42;;;;;;;0.10;0.10;;;15.80;58.00;;;;;;5053573;28;20486;-53
2023/07/28 05:50:14;;;;;;;0.10;0.10;;;15.80;58.00;;;;;;5052201;28;20211;-45
2023/07/28 05:52:44;;;;;;;0.08;0.08;;;15.80;58.00;;;;;;5053363;28;20697;-44
2023/07/28 05:55:15;;;;;;;0.05;0.05;;;15.80;58.00;;;;;;5053532;28;20227;-48
2023/07/28 05:57:46;;;;;;;0.10;0.10;;;15.80;58.00;;;;;;5053802;28;20257;-45
2023/07/28 06:00:19;;;;;;;0.10;0.10;;;15.70;57.90;;;;;;5053659;28;20201;-50
2023/07/28 06:02:49;;;;;;;0.10;0.10;;;15.70;58.00;;;;;;5053505;28;20207;-47
2023/07/28 06:05:20;;;;;;;0.10;0.10;;;15.70;58.00;;;;;;5053092;28;20219;-48
2023/07/28 06:07:51;;;;;;;0.10;0.10;;;15.70;57.90;;;;;;5053419;28;20685;-47
2023/07/28 06:10:21;;;;;;;0.13;0.13;;;15.70;57.90;;;;;;5053290;28;20204;-48
2023/07/28 06:12:52;;;;;;;0.08;0.08;;;15.70;58.00;;;;;;5053328;28;20203;-44
2023/07/28 06:15:24;;;;;;;0.10;0.10;;;15.70;58.00;;;;;;5053220;28;20246;-47
2023/07/28 06:17:55;;;;;;;0.08;0.08;;;15.70;57.90;;;;;;5052084;28;20192;-49
2023/07/28 06:20:26;;;;;;;0.15;0.15;;;15.70;57.90;;;;;;5053192;28;20196;-43
2023/07/28 06:22:56;;;;;;;0.10;0.10;;;15.70;58.00;;;;;;5053278;28;20725;-48
2023/07/28 06:25:27;;;;;;;0.10;0.10;;;15.70;57.90;;;;;;5053055;28;20467;-52
2023/07/28 06:27:58;;;;;;;0.10;0.10;;;15.60;57.90;;;;;;5053396;28;20207;-49
2023/07/28 06:30:31;;;;;;;0.10;0.10;;;15.60;57.90;;;;;;5052884;28;20206;-48
2023/07/28 06:33:03;;;;;;;0.10;0.10;;;15.60;57.90;;;;;;5052892;28;20207;-45
2023/07/28 06:35:33;;;;;;;0.10;0.10;;;15.60;57.80;;;;;;5052870;28;20235;-50
2023/07/28 06:38:04;;;;;;;0.00;0.00;;;15.60;57.80;;;;;;5052973;28;20195;-46
2023/07/28 06:40:38;;;;;;;0.10;0.10;;;15.50;57.80;;;;;;5053244;28;20201;-51
2023/07/28 06:43:09;;;;;;;0.10;0.10;;;15.50;57.90;;;;;;5052389;28;20291;-50
2023/07/28 06:45:41;;;;;;;0.08;0.08;;;15.50;57.80;;;;;;5069232;28;20214;-45
2023/07/28 06:48:12;;;;;;;0.10;0.10;;;15.50;57.80;;;;;;5072254;28;20653;-51
2023/07/28 06:50:44;;;;;;;0.00;0.00;;;15.50;57.80;;;;;;5072241;28;20202;-48
2023/07/28 06:53:14;;;;;;;0.05;0.05;;;15.50;57.80;;;;;;5071945;28;20199;-51
2023/07/28 06:55:47;;;;;;;0.10;0.10;;;15.50;57.80;;;;;;5056199;28;20231;-46
2023/07/28 06:58:17;;;;;;;0.00;0.00;;;15.40;57.80;;;;;;5052239;28;20211;-53
2023/07/28 07:00:51;;;;;;;0.10;0.10;;;15.40;57.80;;;;;;5052639;28;20286;-49
2023/07/28 07:03:22;;;;;;;0.10;0.10;;;15.40;57.80;;;;;;5051790;28;20241;-48
2023/07/28 07:05:53;;;;;;;0.10;0.10;;;15.40;57.70;;;;;;5051963;28;20748;-49
2023/07/28 07:08:24;;;;;;;0.10;0.10;;;15.30;57.70;;;;;;5052158;28;20206;-48
2023/07/28 07:10:55;;;;;;;0.10;0.10;;;15.40;57.80;;;;;;5051990;28;20245;-55
2023/07/28 07:13:25;;;;;;;0.10;0.10;;;15.30;57.70;;;;;;5051651;28;20199;-42
2023/07/28 07:15:58;;;;;;;0.10;0.10;;;15.30;57.70;;;;;;5051657;28;20231;-53
2023/07/28 07:18:28;;;;;;;0.10;0.10;;;15.30;57.70;;;;;;5051652;28;20195;-48
2023/07/28 07:21:03;;;;;;;0.10;0.10;;;15.30;57.70;;;;;;5050597;28;20196;-54
2023/07/28 07:23:34;;;;;;;0.10;0.10;;;15.30;57.80;;;;;;5051631;28;20206;-48
2023/07/28 07:26:04;;;;;;;0.10;0.10;;;15.20;57.70;;;;;;5051656;28;20231;-49
2023/07/28 07:28:35;;;;;;;0.10;0.10;;;15.20;57.70;;;;;;5052292;28;20191;-48
2023/07/28 07:31:13;;;;;;;0.10;0.10;;;15.20;57.70;;;;;;5051881;28;20230;-54
2023/07/28 07:33:44;;;;;;;0.10;0.10;;;15.20;57.70;;;;;;5051356;28;20528;-50
2023/07/28 07:36:16;;;;;;;0.10;0.10;;;15.20;57.60;;;;;;5051098;28;20759;-51
2023/07/28 07:38:47;;;;;;;0.10;0.10;;;15.20;57.70;;;;;;5051712;28;20226;-45
2023/07/28 07:41:19;;;;;;;0.10;0.10;;;15.20;57.60;;;;;;5051615;28;20286;-49
2023/07/28 07:43:50;;;;;;;0.10;0.10;;;15.10;57.60;;;;;;5051501;28;20195;-49
2023/07/28 07:46:23;;;;;;;0.10;0.10;;;15.10;57.60;;;;;;5051434;28;20220;-45
2023/07/28 07:48:54;;;;;;;0.10;0.10;;;15.10;57.60;;;;;;5052168;28;20657;-45
2023/07/28 07:51:25;;;;;;;0.10;0.10;;;15.10;57.70;;;;;;5051468;28;20210;-48
2023/07/28 07:53:55;;;;;;;0.10;0.10;;;15.00;57.60;;;;;;5051980;28;20202;-46
2023/07/28 07:56:26;;;;;;;0.10;0.10;;;15.00;57.60;;;;;;5051057;28;20262;-45
2023/07/28 07:58:56;;;;;;;0.10;0.10;;;15.00;57.60;;;;;;5051068;28;20200;-53
2023/07/28 08:01:29;;;;;;;0.10;0.10;;;15.00;57.60;;;;;;5051181;28;20192;-50
2023/07/28 08:04:00;;;;;;;0.10;0.10;;;15.00;57.60;;;;;;5050898;28;20201;-44
2023/07/28 08:06:30;;;;;;;0.10;0.10;;;15.00;57.60;;;;;;5051196;28;20560;-44
2023/07/28 08:09:01;;;;;;;0.10;0.10;;;14.90;57.60;;;;;;5051534;28;20682;-46
2023/07/28 08:11:32;;;;;;;0.10;0.10;;;14.90;57.60;;;;;;5051294;28;20192;-52
2023/07/28 08:14:03;;;;;;;0.10;0.10;;;14.90;57.60;;;;;;5051137;28;20194;-42
2023/07/28 08:16:35;;;;;;;0.10;0.10;;;14.90;57.60;;;;;;5055109;28;20222;-47
2023/07/28 08:19:06;;;;;;;0.10;0.10;;;14.90;57.60;;;;;;5055518;28;20665;-44
2023/07/28 08:21:37;;;;;;;0.10;0.10;;;14.90;57.60;;;;;;5055526;28;20191;-51
2023/07/28 08:24:08;;;;;;;0.10;0.10;;;14.80;57.60;;;;;;5055295;28;20287;-46
2023/07/28 08:26:39;;;;;;;0.10;0.10;;;14.80;57.60;;;;;;5055139;28;20565;-42
2023/07/28 08:29:09;;;;;;;0.10;0.10;;;14.80;57.60;;;;;;5055675;28;20195;-48
2023/07/28 08:31:42;;;;;;;0.10;0.10;;;14.80;57.60;;;;;;5055432;28;20195;-56
2023/07/28 08:34:12;;;;;;;0.10;0.10;;;14.70;57.50;;;;;;5055114;28;20196;-44
2023/07/28 08:36:43;;;;;;;0.10;0.10;;;14.70;57.50;;;;;;5054896;28;20219;-43
2023/07/28 08:39:14;;;;;;;0.10;0.10;;;14.70;57.60;;;;;;5055151;28;20199;-49
2023/07/28 08:41:45;;;;;;;0.10;0.10;;;14.70;57.60;;;;;;5057276;28;20187;-52
2023/07/28 08:44:17;;;;;;;0.10;0.10;;;14.70;57.60;;;;;;5054986;28;20277;-45
2023/07/28 08:46:49;;;;;;;0.10;0.10;;;14.70;57.60;;;;;;5054869;28;20586;-53
2023/07/28 08:49:21;;;;;;;0.10;0.10;;;14.60;57.50;;;;;;5054761;28;20686;-51
2023/07/28 08:51:53;;;;;;;0.10;0.10;;;14.70;57.60;;;;;;5054868;28;20678;-49
2023/07/28 08:54:24;;;;;;;0.10;0.10;;;14.60;57.60;;;;;;5054039;28;20226;-51
2023/07/28 08:56:54;;;;;;;0.10;0.10;;;14.60;57.50;;;;;;5053971;28;20716;-51
2023/07/28 08:59:26;;;;;;;0.10;0.10;;;14.60;57.50;;;;;;5054686;28;20191;-50
2023/07/28 09:02:01;;;;;;;0.10;0.10;;;14.60;57.50;;;;;;5054712;28;20203;-53
2023/07/28 09:04:31;;;;;;;0.10;0.10;;;14.60;57.50;;;;;;5054253;28;20219;-49
2023/07/28 09:07:06;;;;;;;0.10;0.10;;;14.50;57.40;;;;;;5054402;28;20199;-50
2023/07/28 09:09:37;;;;;;;0.10;0.10;;;14.50;57.50;;;;;;5048631;28;20199;-51
2023/07/28 09:12:08;;;;;;;0.10;0.10;;;14.50;57.50;;;;;;5053927;28;20204;-54
2023/07/28 09:14:40;;;;;;;0.10;0.10;;;14.50;57.50;;;;;;5053270;28;20220;-45
2023/07/28 09:17:14;;;;;;;0.10;0.10;;;14.50;57.50;;;;;;5051521;28;20273;-51
2023/07/28 09:19:55;;;;;;;0.10;0.10;;;14.50;57.50;;;;;;5053730;28;20198;-50
2023/07/28 09:22:26;;;;;;;0.10;0.10;;;14.40;57.40;;;;;;5053626;28;20195;-48
2023/07/28 09:24:57;;;;;;;0.10;0.10;;;14.40;57.50;;;;;;5052793;28;20255;-49
2023/07/28 09:27:29;;;;;;;0.10;0.10;;;14.40;57.50;;;;;;5053661;28;20236;-41
2023/07/28 09:30:00;;;;;;;0.10;0.10;;;14.40;57.50;;;;;;5053306;28;20253;-50
2023/07/28 09:32:36;;;;;;;0.10;0.10;;;14.40;57.50;;;;;;5052315;28;20200;-42
2023/07/28 09:35:14;;;;;;;0.10;0.10;;;14.40;57.60;;;;;;5051214;28;20265;-47
2023/07/28 09:37:47;;;;;;;0.10;0.10;;;14.40;57.60;;;;;;5043953;28;20701;-47
2023/07/28 09:40:19;;;;;;;0.13;0.13;;;14.40;57.60;;;;;;5051350;28;20199;-44
2023/07/28 09:42:54;;;;;;;0.10;0.10;;;14.40;57.60;;;;;;5052327;28;20207;-44
2023/07/28 09:45:25;;;;;;;0.10;0.10;;;14.40;57.60;;;;;;5050763;28;20225;-50
2023/07/28 09:48:00;;;;;;;0.10;0.10;;;14.30;57.50;;;;;;5051620;28;20200;-43
2023/07/28 09:50:35;;;;;;;0.17;0.17;;;14.30;57.50;;;;;;5049530;28;20235;-49
2023/07/28 09:53:06;;;;;;;0.10;0.10;;;14.30;57.50;;;;;;5050169;28;20213;-48
2023/07/28 09:55:37;;;;;;;0.10;0.10;;;14.30;57.50;;;;;;5051356;28;20772;-50
2023/07/28 09:58:11;;;;;;;0.10;0.10;;;14.30;57.50;;;;;;5050853;28;20660;-45
2023/07/28 10:00:42;;;;;;;0.10;0.10;;;14.30;57.50;;;;;;5052404;28;20218;-46
2023/07/28 10:03:15;;;;;;;0.10;0.10;;;14.20;57.40;;;;;;5050955;28;20286;-48
2023/07/28 10:05:47;;;;;;;0.15;0.15;;;14.20;57.50;;;;;;5044120;28;20220;-48
2023/07/28 10:08:19;;;;;;;0.10;0.10;;;14.30;57.50;;;;;;5051214;28;20191;-43
2023/07/28 10:10:52;;;;;;;0.10;0.10;;;14.20;57.50;;;;;;5049927;28;20286;-52
2023/07/28 10:13:27;;;;;;;0.10;0.10;;;14.20;57.50;;;;;;5050143;28;20561;-47
2023/07/28 10:15:58;;;;;;;0.10;0.10;;;14.20;57.50;;;;;;5049668;28;20724;-56
2023/07/28 10:18:32;;;;;;;0.10;0.10;;;14.20;57.60;;;;;;5051683;28;20265;-50
2023/07/28 10:21:08;;;;;;;0.10;0.10;;;14.20;57.50;;;;;;5051339;28;20199;-53
2023/07/28 10:23:39;;;;;;;0.10;0.10;;;14.20;57.50;;;;;;5049922;28;20658;-53
2023/07/28 10:26:10;;;;;;;0.10;0.10;;;14.20;57.50;;;;;;5050994;28;20230;-52
2023/07/28 10:28:41;;;;;;;0.10;0.10;;;14.20;57.50;;;;;;5049053;28;20219;-53
2023/07/28 10:31:12;;;;;;;0.10;0.10;;;14.20;57.50;;;;;;5051913;28;20287;-55
2023/07/28 10:33:48;;;;;;;0.10;0.10;;;14.20;57.50;;;;;;5041993;28;20196;-56
2023/07/28 10:36:20;;;;;;;0.10;0.10;;;14.10;57.50;;;;;;5049709;28;20690;-51
2023/07/28 10:39:02;;;;;;;0.10;0.10;;;14.20;57.50;;;;;;5051939;28;20199;-50
2023/07/28 10:41:32;;;;;;;0.10;0.10;;;14.20;57.50;;;;;;5048898;28;20203;-48
2023/07/28 10:44:03;;;;;;;0.10;0.10;;;14.10;57.40;;;;;;5050373;28;20858;-53
2023/07/28 10:46:37;;;;;;;0.10;0.10;;;14.10;57.50;;;;;;5048460;28;20686;-51
2023/07/28 10:49:10;;;;;;;0.10;0.10;;;14.10;57.50;;;;;;5050677;28;20785;-48
2023/07/28 10:51:44;;;;;;;0.10;0.10;;;14.10;57.50;;;;;;5049395;28;20245;-52
2023/07/28 10:54:18;;;;;;;0.10;0.10;;;14.10;57.50;;;;;;5046849;28;20198;-53
2023/07/28 10:56:48;;;;;;;0.10;0.10;;;14.10;57.50;;;;;;5042591;28;20237;-54
2023/07/28 10:59:19;;;;;;;0.10;0.10;;;14.00;57.50;;;;;;5048670;28;20294;-55
2023/07/28 11:01:50;;;;;;;0.10;0.10;;;14.00;57.50;;;;;;5051017;28;20702;-53
2023/07/28 11:04:23;;;;;;;0.10;0.10;;;14.00;57.50;;;;;;5052334;28;20218;-52
2023/07/28 11:06:54;;;;;;;0.10;0.10;;;14.00;57.50;;;;;;5052495;28;20643;-54
2023/07/28 11:09:26;;;;;;;0.10;0.10;;;14.00;57.50;;;;;;5052106;28;20203;-52
2023/07/28 11:11:57;;;;;;;0.10;0.10;;;14.00;57.50;;;;;;5052233;28;20574;-47
2023/07/28 11:14:29;;;;;;;0.10;0.10;;;14.00;57.50;;;;;;5052184;28;20211;-47
2023/07/28 11:17:00;;;;;;;0.10;0.10;;;14.00;57.50;;;;;;5052379;28;20223;-47
2023/07/28 11:19:32;;;;;;;0.10;0.10;;;14.00;57.50;;;;;;5052147;28;20286;-51
2023/07/28 11:22:03;;;;;;;0.10;0.10;;;14.00;57.50;;;;;;5051750;28;20203;-48
2023/07/28 11:24:34;;;;;;;0.10;0.10;;;14.00;57.50;;;;;;5051722;28;20219;-41
2023/07/28 11:27:05;;;;;;;0.10;0.10;;;13.90;57.50;;;;;;5051744;28;20638;-52
2023/07/28 11:29:36;;;;;;;0.10;0.10;;;13.90;57.50;;;;;;5051927;28;20196;-58
2023/07/28 11:32:08;;;;;;;0.10;0.10;;;13.90;57.50;;;;;;5052450;28;20539;-46
2023/07/28 11:34:43;;;;;;;0.20;0.20;;;13.90;57.50;;;;;;5051971;28;20297;-49
2023/07/28 11:37:15;;;;;;;0.10;0.10;;;13.90;57.50;;;;;;5051826;28;20215;-45
2023/07/28 11:39:46;;;;;;;0.10;0.10;;;13.90;57.50;;;;;;5051771;28;20203;-53
2023/07/28 11:42:18;;;;;;;0.10;0.10;;;13.90;57.50;;;;;;5051771;28;20199;-57
2023/07/28 11:44:49;;;;;;;0.10;0.10;;;13.90;57.50;;;;;;5051221;28;20257;-43
2023/07/28 11:47:22;;;;;;;0.10;0.10;;;13.90;57.50;;;;;;5051445;28;20199;-44
2023/07/28 11:49:54;;;;;;;0.20;0.20;;;13.90;57.50;;;;;;5050853;28;20191;-47
2023/07/28 11:52:25;;;;;;;0.10;0.10;;;13.80;57.40;;;;;;5051600;28;20206;-45
2023/07/28 11:54:56;;;;;;;0.10;0.10;;;13.80;57.40;;;;;;5051386;28;20224;-51
2023/07/28 11:57:30;;;;;;;0.10;0.10;;;13.90;57.50;;;;;;5051317;28;20234;-43
2023/07/28 12:00:02;;;;;;;0.10;0.10;;;13.80;57.40;;;;;;5051428;28;20211;-44
2023/07/28 12:02:34;;;;;;;0.10;0.10;;;13.80;57.50;;;;;;5051547;28;20209;-45
2023/07/28 12:05:16;;;;;;;0.10;0.10;;;13.80;57.50;;;;;;5051320;28;20227;-49
2023/07/28 12:07:51;;;;;;;0.10;0.10;;;13.80;57.40;;;;;;5051608;28;20199;-43
2023/07/28 12:10:22;;;;;;;0.10;0.10;;;13.80;57.40;;;;;;5051178;28;20266;-55
2023/07/28 12:12:54;;;;;;;0.10;0.10;;;13.80;57.40;;;;;;5051556;28;20242;-44
2023/07/28 12:15:28;;;;;;;0.10;0.10;;;13.80;57.40;;;;;;5051638;28;20644;-48
2023/07/28 12:18:10;;;;;;;0.20;0.20;;;13.80;57.50;;;;;;5051477;28;20581;-48
2023/07/28 12:20:46;;;;;;;0.13;0.13;;;13.70;57.40;;;;;;5051372;28;20246;-44
2023/07/28 12:23:19;;;;;;;0.10;0.10;;;13.70;57.40;;;;;;5051097;28;20207;-46
2023/07/28 12:25:50;;;;;;;0.20;0.20;;;13.70;57.50;;;;;;5050782;28;20683;-55
2023/07/28 12:28:21;;;;;;;0.10;0.10;;;13.70;57.50;;;;;;5051102;28;20608;-48
2023/07/28 12:30:59;;;;;;;0.10;0.10;;;13.70;57.50;;;;;;5051221;28;20217;-51
2023/07/28 12:33:29;;;;;;;0.10;0.10;;;13.70;57.50;;;;;;5051403;28;20238;-51
2023/07/28 12:36:02;;;;;;;0.10;0.10;;;13.70;57.50;;;;;;5053594;28;20219;-49
2023/07/28 12:38:32;;;;;;;0.10;0.10;;;13.70;57.40;;;;;;5050674;28;20240;-53
2023/07/28 12:41:03;;;;;;;0.10;0.10;;;13.70;57.40;;;;;;5050986;28;20199;-42
2023/07/28 12:43:34;;;;;;;0.10;0.10;;;13.70;57.40;;;;;;5050567;28;20192;-41
2023/07/28 12:46:05;;;;;;;0.10;0.10;;;13.60;57.40;;;;;;5051000;28;20573;-52
2023/07/28 12:48:35;;;;;;;0.10;0.10;;;13.60;57.40;;;;;;5051163;28;20196;-55
2023/07/28 12:51:08;;;;;;;0.10;0.10;;;13.60;57.40;;;;;;5051098;28;20199;-48
2023/07/28 12:53:38;;;;;;;0.20;0.20;;;13.60;57.40;;;;;;5050937;28;20561;-49
2023/07/28 12:56:09;;;;;;;0.10;0.10;;;13.60;57.40;;;;;;5050628;28;20216;-50
2023/07/28 12:58:40;;;;;;;0.10;0.10;;;13.60;57.40;;;;;;5050616;28;20223;-46
2023/07/28 13:01:11;;;;;;;0.10;0.10;;;13.60;57.40;;;;;;5052940;28;20214;-47
2023/07/28 13:03:42;;;;;;;0.10;0.10;;;13.60;57.40;;;;;;5054324;28;20245;-51
2023/07/28 13:06:15;;;;;;;0.10;0.10;;;13.50;57.30;;;;;;5053940;28;20216;-46
2023/07/28 13:08:46;;;;;;;0.10;0.10;;;13.50;57.30;;;;;;5052772;28;20203;-53
2023/07/28 13:11:16;;;;;;;0.10;0.10;;;13.50;57.30;;;;;;5054427;28;20235;-48